Flight Track Log - Related Links

Times and Time Zones

All times are in EST time to prevent confusion due to time zone crossing. See the ASQ5685 flight status page for this flight to view local times or setup timezone preferences in your user account.

Time Position Orientation Groundspeed Altitude Reporting Facility
EST Latitude Longitude Course Direction KTS MPH feet Rate Location/Type
Mon 12:11:54 PM 33.6286 -84.4803 52° Northeast 390 449 2,900  Level Atlanta Center
Mon 12:12:54 PM 33.6011 -84.5500 245° Southwest 301 346 4,700 2,200 Climbing Atlanta Center
Mon 12:13:54 PM 33.5383 -84.5872 206° Southwest 269 310 7,300 2,700 Climbing Atlanta Center
Mon 12:14:54 PM 33.4675 -84.5592 162° South 280 322 10,100 2,150 Climbing Atlanta Center
Mon 12:15:54 PM 33.4575 -84.4547 97° East 265 305 11,600 1,600 Climbing Atlanta Center
Mon 12:16:54 PM 33.4578 -84.3350 90° East 328 377 13,300 1,600 Climbing Atlanta Center
Mon 12:17:00 PM 34.0911 -83.8857 52° Northeast  Level Estimated
Mon 12:17:54 PM 33.4997 -84.2481 60° Northeast 334 384 14,800  Level Atlanta Center
Mon 12:18:54 PM 33.5833 -84.1933 29° Northeast 311 358 16,600 1,450 Climbing Atlanta Center
Mon 12:19:54 PM 33.6731 -84.1336 29° Northeast 342 394 17,700 1,050 Climbing Atlanta Center
Mon 12:20:54 PM 33.7547 -84.0539 39° Northeast 367 422 18,700 1,050 Climbing Atlanta Center
Mon 12:21:54 PM 33.8150 -83.9414 57° Northeast 374 430 19,800 1,350 Climbing Atlanta Center
Mon 12:22:54 PM 33.8756 -83.8211 59° Northeast 401 461 21,400 1,550 Climbing Atlanta Center
Mon 12:23:54 PM 33.9336 -83.7083 58° Northeast 411 473 22,900 1,500 Climbing Atlanta Center
Mon 12:24:54 PM 34.0022 -83.6003 53° Northeast 406 467 24,400 1,000 Climbing Atlanta Center
Mon 12:25:54 PM 34.0686 -83.4922 53° Northeast 406 467 24,900 500 Climbing Atlanta Center
Mon 12:26:54 PM 34.1411 -83.3786 52° Northeast 420 483 25,400 500 Climbing Atlanta Center
Mon 12:27:54 PM 34.2197 -83.2550 52° Northeast 420 483 25,900 500 Climbing Atlanta Center
Mon 12:28:54 PM 34.2939 -83.1336 53° Northeast 425 489 26,400 500 Climbing Atlanta Center
Mon 12:29:54 PM 34.3681 -83.0144 53° Northeast 434 499 26,900 500 Climbing Atlanta Center
Mon 12:30:54 PM 34.4422 -82.8928 54° Northeast 439 505 27,400 500 Climbing Atlanta Center
Mon 12:31:54 PM 34.5181 -82.7706 53° Northeast 439 505 27,900 500 Climbing Atlanta Center
Mon 12:32:54 PM 34.5942 -82.6483 53° Northeast 444 511 28,400 500 Climbing Atlanta Center
Mon 12:33:54 PM 34.6700 -82.5283 52° Northeast 444 511 28,900 300 Climbing Atlanta Center
Mon 12:34:54 PM 34.7456 -82.4083 53° Northeast 444 511 29,000 50 Climbing Atlanta Center
Mon 12:35:54 PM 34.8189 -82.2856 54° Northeast 444 511 29,000  Level Atlanta Center
Mon 12:36:54 PM 34.8922 -82.1622 54° Northeast 444 511 29,000  Level Atlanta Center
Mon 12:37:54 PM 34.9675 -82.0414 53° Northeast 444 511 29,000  Level Atlanta Center
Mon 12:38:54 PM 35.0386 -81.9181 55° Northeast 444 511 29,000  Level Atlanta Center
Mon 12:39:54 PM 35.1094 -81.7944 55° Northeast 444 511 29,000  Level Atlanta Center
Mon 12:40:54 PM 35.1739 -81.6681 58° Northeast 439 505 29,000  Level Atlanta Center
Mon 12:41:54 PM 35.2400 -81.5417 57° Northeast 439 505 29,000  Level Atlanta Center
Mon 12:42:54 PM 35.3064 -81.4150 57° Northeast 439 505 29,000  Level Atlanta Center
Mon 12:43:54 PM 35.3644 -81.3011 58° Northeast 439 505 29,000  Level Atlanta Center
Mon 12:44:54 PM 35.4283 -81.1739 58° Northeast 439 505 29,000  Level Atlanta Center
Mon 12:45:54 PM 35.4961 -81.0467 57° Northeast 439 505 29,000  Level Atlanta Center
Mon 12:46:54 PM 35.5619 -80.9217 57° Northeast 439 505 29,000  Level Atlanta Center
Mon 12:47:54 PM 35.6275 -80.7967 57° Northeast 439 505 29,000  Level Atlanta Center
Mon 12:48:54 PM 35.6931 -80.6711 57° Northeast 439 505 29,000  Level Atlanta Center
Mon 12:49:54 PM 35.7581 -80.5431 58° Northeast 439 505 29,000  Level Atlanta Center
Mon 12:50:54 PM 35.8253 -80.4122 58° Northeast 445 512 29,000  Level Atlanta Center
Mon 12:51:54 PM 35.8903 -80.2811 59° Northeast 445 512 29,000  Level Atlanta Center
Mon 12:53:54 PM 36.0286 -80.0122 57° Northeast 464 534 29,000  Level Washington Center
Mon 12:54:54 PM 36.0911 -79.8950 57° Northeast 458 527 29,000  Level Washington Center
Mon 12:55:52 PM 36.1736 -79.7503 55° Northeast 458 527 29,000 -202 Level Washington Center
Mon 12:56:53 PM 36.2403 -79.6325 55° Northeast 458 527 28,600 -443 Descending Washington Center
Mon 12:57:54 PM 36.3222 -79.4847 55° Northeast 463 533 28,100 -504 Descending Washington Center
Mon 12:58:52 PM 36.3908 -79.3669 54° Northeast 463 533 27,600 -504 Descending Washington Center
Mon 12:59:53 PM 36.4658 -79.2311 56° Northeast 473 544 27,100 -488 Descending Washington Center
Mon 01:00:55 PM 36.5406 -79.1028 54° Northeast 473 544 26,600 -504 Descending Washington Center
Mon 01:01:52 PM 36.6175 -78.9664 55° Northeast 473 544 26,100 -559 Descending Washington Center
Mon 01:02:53 PM 36.6969 -78.8144 57° Northeast 478 550 25,500 -492 Descending Washington Center
Mon 01:03:54 PM 36.7714 -78.6828 55° Northeast 473 544 25,100 -252 Descending Washington Center
Mon 01:04:52 PM 36.8433 -78.5533 55° Northeast 461 531 25,000 -51 Descending Washington Center
Mon 01:05:52 PM 36.9228 -78.4653 42° Northeast 442 509 25,000 -347 Level Washington Center
Mon 01:06:53 PM 37.0228 -78.3833 33° Northeast 425 489 24,300 -843 Descending Washington Center
Mon 01:07:53 PM 37.1269 -78.3036 31° Northeast 425 489 23,300 -1,041 Descending Washington Center
Mon 01:08:54 PM 37.2394 -78.2136 32° Northeast 430 495 22,200 -645 Descending Washington Center
Mon 01:09:54 PM 37.3264 -78.1461 32° Northeast 435 501 22,000 -102 Descending Washington Center
Mon 01:10:52 PM 37.4239 -78.0658 33° Northeast 419 482 22,000 -50 Level Washington Center
Mon 01:11:53 PM 37.5217 -77.9878 32° Northeast 414 476 21,900 -885 Descending Washington Center
Mon 01:12:54 PM 37.6192 -77.9069 33° Northeast 420 483 20,200 -1,765 Descending Washington Center
Mon 01:13:52 PM 37.7144 -77.8283 33° Northeast 420 483 18,400 -1,815 Descending Washington Center
Mon 01:14:53 PM 37.8097 -77.7525 32° Northeast 415 478 16,600 -1,785 Descending Washington Center
Mon 01:15:53 PM 37.9006 -77.6786 33° Northeast 405 466 14,800 -1,800 Descending Washington Center
Mon 01:16:53 PM 37.9853 -77.6097 33° Northeast 383 441 13,000 -1,636 Descending Washington Center
Mon 01:17:54 PM 38.0656 -77.5461 32° Northeast 358 412 11,500 -1,426 Descending Washington Center
Mon 01:18:55 PM 38.1394 -77.4847 33° Northeast 331 381 10,100 -763 Descending Washington Center
Mon 01:19:52 PM 38.2072 -77.4308 32° Northeast 302 348 10,000 -153 Descending Washington Center
Mon 01:20:53 PM 38.2808 -77.3878 25° Northeast 291 335 9,800 -689 Descending Washington Center
Mon 01:21:54 PM 38.3564 -77.3550 19° North 286 329 8,600 6,050 Descending Washington Center
Mon 01:22:54 PM 38.4333 -77.3569 359° North 274 315 22,000 -1,200 Climbing Washington Center
Mon 01:23:54 PM 38.5106 -77.3614 357° North 274 315 6,200 -8,593 Descending Washington Center
Mon 01:24:52 PM 38.5856 -77.3658 357° North 274 315 5,100 -990 Descending Washington Center
Mon 01:25:37 PM 38.6500 -77.3667 359° North 264 304 4,500 -667 Descending Potomac TRACON
Mon 01:26:31 PM 38.7167 -77.3667 360° North 265 305 4,000 -263 Descending Potomac TRACON
Mon 01:27:31 PM 38.7833 -77.3500 11° North 235 270 4,000  Level Potomac TRACON
Mon 01:28:31 PM 38.8500 -77.3500 360° North 233 268 4,000 -350 Level Potomac TRACON
Mon 01:29:31 PM 38.9167 -77.3500 360° North 240 276 3,300 -574 Descending Potomac TRACON
Mon 01:30:26 PM 38.9667 -77.3500 360° North 215 247 2,900 -522 Descending Potomac TRACON
Mon 01:31:26 PM 39.0000 -77.3833 322° Northwest 177 204 2,300 -850 Descending Potomac TRACON
Mon 01:32:26 PM 38.9833 -77.4333 247° West 155 178 1,200 -1,100 Descending Potomac TRACON

Login

Don't have an account? Register now (free) for customized features, flight alerts, and more!